createdAt,value
2019-01-14T00:01:49.957Z,99.90
2019-01-14T00:04:20.434Z,99.90
2019-01-14T00:06:50.912Z,99.90
2019-01-14T00:09:23.142Z,99.90
2019-01-14T00:11:53.627Z,99.90
2019-01-14T00:14:24.102Z,99.90
2019-01-14T00:16:54.750Z,99.90
2019-01-14T00:19:25.189Z,99.90
2019-01-14T00:21:55.670Z,99.90
2019-01-14T00:24:26.119Z,99.90
2019-01-14T00:26:56.625Z,99.90
2019-01-14T00:29:27.083Z,99.90
2019-01-14T00:31:57.585Z,99.90
2019-01-14T00:34:28.400Z,99.90
2019-01-14T00:36:58.883Z,99.90
2019-01-14T00:39:29.337Z,99.90
2019-01-14T00:41:59.826Z,99.90
2019-01-14T00:44:30.270Z,99.90
2019-01-14T00:47:00.766Z,99.90
2019-01-14T00:49:31.212Z,99.90
2019-01-14T00:52:01.704Z,99.90
2019-01-14T00:54:32.164Z,99.90
2019-01-14T00:57:02.646Z,99.90
2019-01-14T00:59:33.100Z,99.90
2019-01-14T01:02:03.649Z,99.90
2019-01-14T01:04:34.132Z,99.90
2019-01-14T01:07:04.793Z,99.90
2019-01-14T01:09:35.343Z,99.90
2019-01-14T01:12:06.923Z,99.90
2019-01-14T01:14:37.372Z,99.90
2019-01-14T01:17:07.855Z,99.90
2019-01-14T01:19:38.312Z,99.90
2019-01-14T01:22:08.799Z,99.90
2019-01-14T01:24:39.269Z,99.90
2019-01-14T01:27:09.755Z,99.90
2019-01-14T01:29:40.238Z,99.90
2019-01-14T01:32:10.690Z,99.90
2019-01-14T01:34:41.175Z,99.90
2019-01-14T01:37:11.627Z,99.90
2019-01-14T01:39:42.109Z,99.90
2019-01-14T01:42:12.657Z,99.90
2019-01-14T01:44:43.203Z,99.90
2019-01-14T01:47:13.733Z,99.90
2019-01-14T01:49:44.292Z,99.90
2019-01-14T01:52:14.818Z,99.90
2019-01-14T01:54:45.319Z,99.90
2019-01-14T01:57:15.795Z,99.90
2019-01-14T01:59:46.325Z,99.90
2019-01-14T02:02:16.818Z,99.90
2019-01-14T02:04:48.858Z,99.90
2019-01-14T02:07:19.324Z,99.90
2019-01-14T02:09:49.812Z,99.90
2019-01-14T02:12:20.304Z,99.90
2019-01-14T02:14:50.769Z,99.90
2019-01-14T02:17:22.891Z,99.90
2019-01-14T02:19:53.360Z,99.90
2019-01-14T02:22:23.849Z,99.90
2019-01-14T02:24:54.374Z,99.90
2019-01-14T02:27:24.862Z,99.90
2019-01-14T02:29:55.319Z,99.90
2019-01-14T02:32:25.828Z,99.90
2019-01-14T02:34:56.281Z,99.90
2019-01-14T02:37:26.769Z,99.90
2019-01-14T02:39:57.235Z,99.90
2019-01-14T02:42:27.721Z,99.90
2019-01-14T02:44:58.192Z,99.90
2019-01-14T02:47:28.667Z,99.90
2019-01-14T02:49:59.168Z,99.90
2019-01-14T02:52:29.637Z,99.90
2019-01-14T02:55:00.177Z,99.90
2019-01-14T02:57:31.353Z,99.90
2019-01-14T03:00:01.821Z,99.90
2019-01-14T03:02:32.378Z,99.90
2019-01-14T03:05:04.173Z,99.90
2019-01-14T03:07:34.717Z,99.90
2019-01-14T03:10:09.474Z,99.90
2019-01-14T03:12:40.016Z,99.90
2019-01-14T03:15:14.606Z,99.90
2019-01-14T03:17:45.063Z,99.90
2019-01-14T03:20:17.572Z,99.90
2019-01-14T03:22:48.263Z,99.90
2019-01-14T03:25:18.999Z,99.90
2019-01-14T03:27:49.510Z,99.90
2019-01-14T03:30:20.435Z,99.90
2019-01-14T03:32:50.892Z,99.90
2019-01-14T03:35:21.373Z,99.90
2019-01-14T03:37:51.856Z,99.90
2019-01-14T03:40:22.393Z,99.90
2019-01-14T03:42:52.930Z,99.90
2019-01-14T03:45:23.488Z,99.90
2019-01-14T03:47:53.948Z,99.90
2019-01-14T03:50:24.720Z,99.90
2019-01-14T03:52:55.176Z,99.90
2019-01-14T03:55:25.728Z,99.90
2019-01-14T03:57:56.260Z,99.90
2019-01-14T04:00:26.738Z,99.90
2019-01-14T04:02:57.199Z,99.90
2019-01-14T04:05:27.708Z,99.90
2019-01-14T04:07:58.244Z,99.90
2019-01-14T04:10:28.730Z,99.90
2019-01-14T04:12:59.207Z,99.90
2019-01-14T04:15:29.734Z,99.90
2019-01-14T04:18:00.229Z,99.90
2019-01-14T04:20:30.686Z,99.90
2019-01-14T04:23:01.485Z,99.90
2019-01-14T04:25:32.015Z,99.90
2019-01-14T04:28:02.499Z,99.90
2019-01-14T04:30:33.017Z,99.90
2019-01-14T04:33:03.512Z,99.90
2019-01-14T04:35:33.975Z,99.90
2019-01-14T04:38:04.538Z,99.90
2019-01-14T04:40:35.066Z,99.90
2019-01-14T04:43:05.614Z,99.90
2019-01-14T04:45:36.098Z,99.90
2019-01-14T04:48:06.589Z,99.90
2019-01-14T04:50:37.041Z,99.90
2019-01-14T04:53:07.522Z,99.90
2019-01-14T04:55:38.071Z,99.90
2019-01-14T04:58:10.067Z,99.90
2019-01-14T05:00:40.556Z,99.90
2019-01-14T05:03:11.048Z,99.90
2019-01-14T05:05:41.602Z,99.90
2019-01-14T05:08:12.712Z,99.90
2019-01-14T05:10:43.223Z,99.90
2019-01-14T05:13:13.702Z,99.90
2019-01-14T05:15:44.185Z,99.90
2019-01-14T05:18:14.652Z,99.90
2019-01-14T05:20:45.241Z,99.90
2019-01-14T05:23:15.697Z,99.90
2019-01-14T05:25:46.190Z,99.90
2019-01-14T05:28:16.638Z,99.90
2019-01-14T05:30:47.138Z,99.90
2019-01-14T05:33:17.627Z,99.90
2019-01-14T05:35:48.094Z,99.90
2019-01-14T05:38:18.577Z,99.90
2019-01-14T05:40:49.490Z,99.90
2019-01-14T05:43:19.987Z,99.90
2019-01-14T05:45:50.434Z,99.90
2019-01-14T05:48:20.982Z,99.90
2019-01-14T05:50:51.461Z,99.90
2019-01-14T05:53:21.911Z,99.90
2019-01-14T05:55:52.393Z,99.90
2019-01-14T05:58:22.846Z,99.90
2019-01-14T06:00:53.333Z,99.90
2019-01-14T06:03:23.847Z,99.90
2019-01-14T06:05:54.332Z,99.90
2019-01-14T06:08:24.794Z,99.90
2019-01-14T06:10:55.310Z,99.90
2019-01-14T06:13:25.768Z,99.90
2019-01-14T06:15:56.249Z,99.90
2019-01-14T06:18:26.700Z,99.90
2019-01-14T06:20:57.185Z,99.90
2019-01-14T06:23:27.658Z,99.90
2019-01-14T06:25:58.153Z,99.90
2019-01-14T06:28:28.680Z,99.90
2019-01-14T06:30:59.156Z,99.90
2019-01-14T06:33:29.640Z,99.90
2019-01-14T06:36:00.101Z,99.90
2019-01-14T06:38:30.589Z,99.90
2019-01-14T06:41:01.041Z,99.90
2019-01-14T06:43:31.535Z,99.90
2019-01-14T06:46:02.089Z,99.90
2019-01-14T06:48:32.589Z,99.90
2019-01-14T06:51:03.128Z,99.90
2019-01-14T06:53:34.621Z,99.90
2019-01-14T06:56:05.190Z,99.90
2019-01-14T06:58:35.675Z,99.90
2019-01-14T07:01:06.227Z,99.90
2019-01-14T07:03:36.719Z,99.90
2019-01-14T07:06:07.275Z,99.90
2019-01-14T07:08:39.607Z,99.90
2019-01-14T07:11:10.541Z,99.90
2019-01-14T07:13:41.043Z,99.90
2019-01-14T07:16:11.543Z,99.90
2019-01-14T07:18:42.021Z,99.90
2019-01-14T07:21:12.501Z,99.90
2019-01-14T07:23:43.008Z,99.90
2019-01-14T07:26:14.056Z,99.90
2019-01-14T07:28:44.565Z,99.90
2019-01-14T07:31:15.017Z,99.90
2019-01-14T07:33:45.507Z,99.90
2019-01-14T07:36:15.988Z,99.90
2019-01-14T07:38:46.445Z,99.90
2019-01-14T07:41:17.092Z,99.90
2019-01-14T07:43:47.564Z,99.90
2019-01-14T07:46:18.050Z,99.90
2019-01-14T07:48:48.529Z,99.90
2019-01-14T07:51:19.093Z,99.90
2019-01-14T07:53:49.554Z,99.90
2019-01-14T07:56:20.720Z,99.90
2019-01-14T07:58:51.478Z,99.90
2019-01-14T08:01:21.976Z,99.90
2019-01-14T08:03:52.429Z,99.90
2019-01-14T08:06:22.939Z,99.90
2019-01-14T08:08:53.395Z,99.70
2019-01-14T08:11:23.889Z,98.80
2019-01-14T08:13:54.335Z,98.70
2019-01-14T08:16:24.845Z,98.40
2019-01-14T08:18:55.370Z,98.50
2019-01-14T08:21:25.869Z,98.50
2019-01-14T08:23:56.338Z,97.00
2019-01-14T08:26:27.945Z,97.50
2019-01-14T08:28:58.478Z,97.10
2019-01-14T08:31:29.033Z,96.30
2019-01-14T08:33:59.565Z,95.20
2019-01-14T08:36:30.130Z,95.10
2019-01-14T08:39:00.638Z,95.20
2019-01-14T08:41:32.392Z,95.00
2019-01-14T08:44:04.632Z,94.70
2019-01-14T08:46:35.139Z,94.80
2019-01-14T08:49:05.664Z,94.80
2019-01-14T08:51:36.154Z,95.00
2019-01-14T08:54:06.684Z,94.90
2019-01-14T08:56:37.207Z,95.50
2019-01-14T08:59:07.730Z,96.20
2019-01-14T09:01:38.294Z,97.10
2019-01-14T09:04:08.958Z,98.00
2019-01-14T09:06:39.463Z,98.40
2019-01-14T09:09:10.790Z,98.70
2019-01-14T09:11:41.358Z,99.50
2019-01-14T09:14:11.832Z,99.90
2019-01-14T09:16:42.303Z,99.90
2019-01-14T09:19:12.861Z,99.90
2019-01-14T09:21:43.381Z,99.90
2019-01-14T09:24:13.867Z,99.90
2019-01-14T09:26:45.066Z,99.90
2019-01-14T09:29:15.638Z,99.90
2019-01-14T09:31:46.620Z,99.90
2019-01-14T09:34:17.108Z,99.90
2019-01-14T09:36:47.565Z,99.90
2019-01-14T09:39:18.046Z,99.90
2019-01-14T09:41:48.497Z,99.90
2019-01-14T09:44:18.992Z,99.90
2019-01-14T09:46:49.476Z,97.00
2019-01-14T09:49:20.024Z,96.50
2019-01-14T09:51:50.509Z,94.70
2019-01-14T09:54:21.001Z,94.50
2019-01-14T09:56:51.499Z,92.20
2019-01-14T09:59:21.983Z,90.70
2019-01-14T10:01:52.445Z,88.30
2019-01-14T10:04:22.951Z,88.40
2019-01-14T10:06:54.434Z,89.00
2019-01-14T10:09:24.905Z,85.30
2019-01-14T10:11:55.368Z,82.60
2019-01-14T10:14:25.920Z,83.80
2019-01-14T10:16:58.026Z,86.60
2019-01-14T10:19:28.524Z,85.30
2019-01-14T10:21:59.006Z,83.50
2019-01-14T10:24:29.479Z,85.20
2019-01-14T10:26:59.946Z,84.30
2019-01-14T10:29:30.429Z,84.40
2019-01-14T10:32:00.882Z,80.60
2019-01-14T10:34:31.369Z,78.80
2019-01-14T10:37:01.846Z,77.20
2019-01-14T10:39:32.330Z,78.70
2019-01-14T10:42:05.037Z,72.90
2019-01-14T10:44:34.972Z,69.90
2019-01-14T10:47:05.604Z,73.50
2019-01-14T10:49:36.103Z,71.10
2019-01-14T10:52:06.755Z,70.30
2019-01-14T10:54:37.225Z,68.80
2019-01-14T10:57:07.682Z,67.60
2019-01-14T10:59:38.172Z,66.90
2019-01-14T11:02:08.650Z,66.70
2019-01-14T11:04:39.137Z,69.50
2019-01-14T11:07:09.702Z,67.60
2019-01-14T11:09:44.563Z,68.70
2019-01-14T11:12:14.108Z,73.90
2019-01-14T11:14:44.573Z,79.40
2019-01-14T11:17:15.051Z,80.40
2019-01-14T11:19:45.506Z,83.10
2019-01-14T11:22:16.073Z,87.50
2019-01-14T11:24:49.986Z,91.70
2019-01-14T11:27:20.743Z,94.40
2019-01-14T11:29:53.926Z,97.00
2019-01-14T11:32:24.512Z,98.90
2019-01-14T11:34:55.097Z,99.90
2019-01-14T11:37:25.550Z,99.90
2019-01-14T11:39:56.044Z,99.90
2019-01-14T11:42:26.496Z,99.90
2019-01-14T11:44:56.977Z,99.90
2019-01-14T11:47:27.513Z,99.90
2019-01-14T11:49:58.008Z,99.90
2019-01-14T11:52:28.479Z,99.90
2019-01-14T11:54:58.984Z,99.90
2019-01-14T11:57:29.430Z,99.90
2019-01-14T11:59:59.924Z,99.90
2019-01-14T12:02:30.446Z,99.90
2019-01-14T12:05:00.903Z,99.90
2019-01-14T12:07:31.390Z,98.80
2019-01-14T12:10:01.859Z,97.30
2019-01-14T12:12:32.510Z,93.40
2019-01-14T12:15:03.224Z,93.30
2019-01-14T12:17:33.718Z,92.70
2019-01-14T12:20:06.499Z,91.70
2019-01-14T12:22:37.002Z,92.80
2019-01-14T12:25:09.405Z,93.40
2019-01-14T12:27:39.853Z,92.90
2019-01-14T12:30:44.794Z,93.30
2019-01-14T12:33:15.343Z,92.20
2019-01-14T12:35:45.833Z,93.90
2019-01-14T12:38:16.486Z,95.00
2019-01-14T12:40:46.956Z,94.80
2019-01-14T12:43:17.410Z,95.10
2019-01-14T12:45:48.002Z,95.70
2019-01-14T12:48:18.455Z,97.10
2019-01-14T12:50:49.006Z,97.70
2019-01-14T12:53:19.465Z,97.90
2019-01-14T12:55:49.960Z,98.10
2019-01-14T12:58:20.421Z,97.90
2019-01-14T13:00:50.928Z,97.70
2019-01-14T13:03:21.388Z,96.80
2019-01-14T13:05:51.871Z,94.00
2019-01-14T13:08:22.361Z,93.30
2019-01-14T13:10:52.878Z,92.10
2019-01-14T13:13:23.333Z,87.10
2019-01-14T13:15:53.896Z,84.90
2019-01-14T13:18:24.350Z,88.80
2019-01-14T13:20:54.899Z,85.80
2019-01-14T13:23:25.427Z,87.30
2019-01-14T13:25:55.939Z,77.70
2019-01-14T13:28:26.391Z,81.90
2019-01-14T13:30:56.870Z,82.50
2019-01-14T13:33:27.342Z,79.20
2019-01-14T13:35:59.952Z,77.60
2019-01-14T13:38:30.489Z,78.30
2019-01-14T13:41:00.983Z,79.70
2019-01-14T13:43:31.456Z,79.40
2019-01-14T13:46:02.040Z,82.50
2019-01-14T13:48:32.622Z,84.00
2019-01-14T13:51:03.112Z,86.10
2019-01-14T13:53:33.568Z,86.40
2019-01-14T13:56:06.721Z,89.30
2019-01-14T13:58:37.201Z,92.20
2019-01-14T14:01:07.660Z,92.90
2019-01-14T14:03:38.173Z,91.30
2019-01-14T14:06:08.667Z,90.80
2019-01-14T14:08:39.189Z,88.00
2019-01-14T14:11:09.631Z,88.80
2019-01-14T14:13:40.127Z,89.90
2019-01-14T14:16:10.583Z,90.60
2019-01-14T14:18:41.157Z,90.00
2019-01-14T14:21:11.621Z,82.60
2019-01-14T14:23:42.192Z,77.40
2019-01-14T14:26:13.491Z,78.50
2019-01-14T14:28:43.964Z,79.50
2019-01-14T14:31:14.492Z,80.90
2019-01-14T14:33:44.997Z,78.70
2019-01-14T14:36:15.455Z,83.40
2019-01-14T14:38:45.944Z,80.50
2019-01-14T14:41:16.442Z,79.80
2019-01-14T14:43:47.963Z,80.30
2019-01-14T14:46:18.502Z,80.50
2019-01-14T14:48:48.962Z,80.40
2019-01-14T14:51:19.506Z,80.70
2019-01-14T14:53:50.000Z,81.60
2019-01-14T14:56:20.439Z,81.10
2019-01-14T14:58:50.920Z,81.70
2019-01-14T15:01:21.412Z,82.40
2019-01-14T15:03:51.871Z,83.40
2019-01-14T15:06:22.369Z,82.30
2019-01-14T15:08:52.854Z,79.00
2019-01-14T15:11:23.309Z,79.50
2019-01-14T15:13:53.796Z,80.00
2019-01-14T15:16:24.295Z,75.70
2019-01-14T15:18:54.753Z,76.30
2019-01-14T15:21:25.251Z,73.10
2019-01-14T15:23:55.735Z,73.70
2019-01-14T15:26:26.187Z,72.30
2019-01-14T15:28:56.663Z,70.70
2019-01-14T15:31:27.111Z,71.20
2019-01-14T15:33:57.663Z,69.20
2019-01-14T15:36:29.993Z,67.90
2019-01-14T15:39:00.478Z,69.10
2019-01-14T15:41:30.935Z,69.80
2019-01-14T15:44:01.439Z,70.50
2019-01-14T15:46:31.897Z,69.60
2019-01-14T15:49:02.366Z,71.30
2019-01-14T15:51:32.906Z,71.10
2019-01-14T15:54:03.420Z,70.30
2019-01-14T15:56:33.955Z,71.20
2019-01-14T15:59:04.441Z,70.90
2019-01-14T16:01:34.953Z,71.70
2019-01-14T16:04:05.796Z,69.60
2019-01-14T16:06:36.255Z,68.10
2019-01-14T16:09:08.752Z,67.40
2019-01-14T16:11:39.201Z,66.60
2019-01-14T16:14:09.765Z,67.40
2019-01-14T16:16:40.358Z,64.50
2019-01-14T16:19:10.846Z,64.40
2019-01-14T16:21:41.426Z,63.90
2019-01-14T16:24:11.916Z,61.60
2019-01-14T16:26:42.385Z,61.40
2019-01-14T16:29:12.893Z,61.60
2019-01-14T16:31:43.420Z,59.60
2019-01-14T16:34:13.906Z,60.10
2019-01-14T16:36:44.356Z,60.20
2019-01-14T16:39:14.835Z,61.80
2019-01-14T16:41:48.350Z,59.80
2019-01-14T16:44:20.376Z,62.50
2019-01-14T16:46:50.872Z,60.80
2019-01-14T16:49:21.351Z,60.00
2019-01-14T16:51:51.883Z,60.20
2019-01-14T16:54:22.410Z,61.80
2019-01-14T16:56:52.857Z,61.80
2019-01-14T16:59:23.347Z,61.80
2019-01-14T17:01:53.811Z,64.20
2019-01-14T17:04:24.306Z,63.40
2019-01-14T17:06:54.746Z,64.90
2019-01-14T17:09:25.243Z,65.70
2019-01-14T17:11:55.699Z,64.60
2019-01-14T17:14:26.190Z,65.40
2019-01-14T17:16:56.636Z,67.50
2019-01-14T17:19:27.118Z,66.30
2019-01-14T17:21:57.574Z,67.20
2019-01-14T17:24:28.176Z,67.20
2019-01-14T17:26:58.952Z,67.80
2019-01-14T17:29:29.396Z,70.70
2019-01-14T17:31:59.952Z,70.80
2019-01-14T17:34:30.428Z,71.90
2019-01-14T17:37:01.738Z,74.00
2019-01-14T17:39:32.293Z,72.90
2019-01-14T17:42:03.255Z,73.60
2019-01-14T17:44:33.707Z,74.00
2019-01-14T17:47:16.865Z,72.10
2019-01-14T17:49:48.906Z,72.20
2019-01-14T17:52:19.374Z,73.20
2019-01-14T17:54:49.882Z,72.70
2019-01-14T17:57:20.333Z,72.90
2019-01-14T17:59:50.839Z,72.50
2019-01-14T18:02:21.291Z,72.00
2019-01-14T18:04:51.811Z,70.90
2019-01-14T18:07:22.636Z,71.40
2019-01-14T18:09:53.120Z,71.10
2019-01-14T18:12:23.604Z,68.90
2019-01-14T18:14:54.054Z,70.00
2019-01-14T18:17:24.535Z,70.20
2019-01-14T18:19:54.984Z,68.80
2019-01-14T18:22:25.474Z,67.80
2019-01-14T18:24:55.935Z,68.70
2019-01-14T18:27:26.436Z,70.00
2019-01-14T18:29:56.884Z,68.30
2019-01-14T18:32:27.363Z,67.30
2019-01-14T18:34:57.848Z,65.50
2019-01-14T18:37:28.299Z,63.10
2019-01-14T18:39:58.777Z,62.00
2019-01-14T18:42:29.231Z,62.50
2019-01-14T18:44:59.718Z,62.80
2019-01-14T18:47:30.167Z,62.70
2019-01-14T18:50:00.657Z,62.80
2019-01-14T18:52:31.144Z,62.00
2019-01-14T18:55:01.651Z,61.10
2019-01-14T18:57:32.483Z,62.50
2019-01-14T19:00:03.244Z,61.80
2019-01-14T19:02:33.730Z,61.10
2019-01-14T19:05:04.550Z,61.40
2019-01-14T19:07:35.178Z,84.80
2019-01-14T19:10:09.694Z,93.70
2019-01-14T19:12:40.219Z,95.30
2019-01-14T19:15:17.358Z,96.60
2019-01-14T19:17:48.547Z,97.70
2019-01-14T19:20:25.012Z,99.30
2019-01-14T19:22:55.590Z,99.80
2019-01-14T19:25:26.303Z,98.20
2019-01-14T19:27:56.791Z,97.60
2019-01-14T19:30:27.263Z,94.70
2019-01-14T19:32:57.752Z,89.80
2019-01-14T19:35:28.219Z,83.20
2019-01-14T19:38:00.344Z,75.80
2019-01-14T19:40:30.897Z,72.40
2019-01-14T19:43:01.464Z,73.40
2019-01-14T19:45:31.962Z,71.10
2019-01-14T19:48:02.554Z,70.90
2019-01-14T19:50:33.141Z,72.20
2019-01-14T19:53:04.560Z,69.00
2019-01-14T19:55:35.072Z,69.30
2019-01-14T19:58:05.904Z,70.00
2019-01-14T20:00:37.007Z,68.90
2019-01-14T20:03:07.504Z,69.20
2019-01-14T20:05:38.048Z,67.90
2019-01-14T20:08:08.938Z,67.20
2019-01-14T20:10:42.938Z,70.10
2019-01-14T20:13:13.414Z,68.20
2019-01-14T20:15:43.931Z,69.70
2019-01-14T20:18:14.386Z,68.40
2019-01-14T20:20:44.893Z,69.50
2019-01-14T20:23:15.350Z,87.80
2019-01-14T20:25:45.853Z,73.30
2019-01-14T20:28:16.322Z,72.50
2019-01-14T20:30:46.826Z,72.60
2019-01-14T20:33:19.556Z,71.90
2019-01-14T20:35:49.480Z,72.60
2019-01-14T20:38:19.973Z,73.30
2019-01-14T20:40:50.466Z,75.10
2019-01-14T20:43:21.046Z,76.20
2019-01-14T20:45:51.509Z,77.60
2019-01-14T20:48:23.649Z,78.10
2019-01-14T20:50:54.145Z,78.90
2019-01-14T20:53:24.617Z,80.20
2019-01-14T20:55:56.719Z,81.40
2019-01-14T20:58:27.266Z,81.80
2019-01-14T21:00:57.769Z,80.40
2019-01-14T21:03:28.313Z,76.80
2019-01-14T21:05:58.947Z,74.10
2019-01-14T21:08:29.397Z,70.80
2019-01-14T21:11:00.019Z,70.90
2019-01-14T21:13:30.592Z,74.00
2019-01-14T21:16:03.021Z,74.40
2019-01-14T21:18:33.247Z,77.30
2019-01-14T21:21:03.799Z,77.10
2019-01-14T21:23:34.293Z,77.90
2019-01-14T21:26:05.170Z,79.20
2019-01-14T21:28:35.691Z,79.80
2019-01-14T21:31:06.302Z,81.60
2019-01-14T21:33:36.798Z,87.00
2019-01-14T21:36:07.338Z,91.20
2019-01-14T21:38:37.920Z,93.70
2019-01-14T21:41:08.414Z,95.00
2019-01-14T21:43:38.944Z,94.50
2019-01-14T21:46:09.505Z,94.90
2019-01-14T21:48:39.992Z,95.00
2019-01-14T21:51:12.162Z,94.50
2019-01-14T21:53:42.653Z,92.90
2019-01-14T21:56:13.148Z,93.20
2019-01-14T21:58:43.644Z,92.90
2019-01-14T22:01:14.124Z,92.70
2019-01-14T22:03:44.622Z,92.70
2019-01-14T22:06:15.196Z,92.80
2019-01-14T22:08:45.695Z,93.10
2019-01-14T22:11:16.166Z,93.80
2019-01-14T22:13:46.727Z,94.10
2019-01-14T22:16:18.036Z,94.10
2019-01-14T22:18:48.550Z,94.50
2019-01-14T22:21:19.014Z,95.80
2019-01-14T22:23:49.513Z,95.10
2019-01-14T22:26:19.984Z,95.60
2019-01-14T22:28:50.464Z,95.80
2019-01-14T22:31:21.021Z,96.20
2019-01-14T22:33:51.504Z,96.30
2019-01-14T22:36:21.997Z,96.30
2019-01-14T22:38:52.465Z,96.30
2019-01-14T22:41:23.024Z,96.40
2019-01-14T22:43:53.483Z,96.40
2019-01-14T22:46:23.990Z,96.70
2019-01-14T22:48:54.526Z,95.40
2019-01-14T22:51:25.027Z,95.70
2019-01-14T22:53:55.547Z,96.00
2019-01-14T22:56:26.013Z,96.60
2019-01-14T22:58:56.504Z,96.60
2019-01-14T23:01:28.982Z,96.30
2019-01-14T23:04:00.009Z,96.30
2019-01-14T23:06:30.619Z,96.20
2019-01-14T23:09:01.145Z,96.10
2019-01-14T23:11:31.613Z,96.30
2019-01-14T23:14:02.122Z,96.40
2019-01-14T23:16:32.619Z,96.60
2019-01-14T23:19:03.118Z,96.20
2019-01-14T23:21:33.613Z,96.10
2019-01-14T23:24:04.499Z,95.80
2019-01-14T23:26:34.959Z,95.80
2019-01-14T23:29:05.479Z,93.00
2019-01-14T23:31:35.940Z,91.00
2019-01-14T23:34:06.579Z,90.90
2019-01-14T23:36:37.076Z,91.10
2019-01-14T23:39:09.180Z,90.00
2019-01-14T23:41:39.746Z,89.90
2019-01-14T23:44:10.237Z,90.20
2019-01-14T23:46:40.707Z,87.30
2019-01-14T23:49:11.251Z,86.50
2019-01-14T23:51:41.735Z,84.50
2019-01-14T23:54:14.374Z,83.60
2019-01-14T23:56:44.838Z,83.70
2019-01-14T23:59:15.353Z,82.50
